createdAt,value
2022-11-30T00:00:17.831Z,59.22
2022-11-30T00:05:20.826Z,56.52
2022-11-30T00:10:22.854Z,58.39
2022-11-30T00:15:24.514Z,56.16
2022-11-30T00:20:26.326Z,55.40
2022-11-30T00:25:27.971Z,57.25
2022-11-30T00:30:30.670Z,55.31
2022-11-30T00:35:32.287Z,55.24
2022-11-30T00:40:33.861Z,56.19
2022-11-30T00:45:35.665Z,57.33
2022-11-30T00:50:37.258Z,56.37
2022-11-30T00:55:38.898Z,57.73
2022-11-30T01:00:40.846Z,58.62
2022-11-30T01:05:46.138Z,58.13
2022-11-30T01:10:53.263Z,58.80
2022-11-30T01:15:55.076Z,58.23
2022-11-30T01:20:56.682Z,57.88
2022-11-30T01:25:58.267Z,57.70
2022-11-30T01:31:05.997Z,57.36
2022-11-30T01:36:12.146Z,57.86
2022-11-30T01:41:18.989Z,56.65
2022-11-30T01:46:45.110Z,57.68
2022-11-30T01:51:58.354Z,57.18
2022-11-30T01:57:07.774Z,55.57
2022-11-30T02:02:09.743Z,56.14
2022-11-30T02:07:11.502Z,55.39
2022-11-30T02:12:27.186Z,55.38
2022-11-30T02:17:38.048Z,55.83
2022-11-30T02:22:48.812Z,54.97
2022-11-30T02:28:16.683Z,54.27
2022-11-30T02:33:27.813Z,55.15
2022-11-30T02:38:30.063Z,53.00
2022-11-30T02:43:33.161Z,56.99
2022-11-30T02:48:34.631Z,55.45
2022-11-30T02:53:37.027Z,55.02
2022-11-30T02:58:39.723Z,55.52
2022-11-30T03:03:41.430Z,54.75
2022-11-30T03:08:43.030Z,56.22
2022-11-30T03:13:44.694Z,55.89
2022-11-30T03:18:46.270Z,55.67
2022-11-30T03:23:47.891Z,55.30
2022-11-30T03:28:49.570Z,56.30
2022-11-30T03:33:51.183Z,55.82
2022-11-30T03:38:52.990Z,55.25
2022-11-30T03:43:54.746Z,54.96
2022-11-30T03:48:56.323Z,56.59
2022-11-30T03:53:57.974Z,56.23
2022-11-30T03:58:59.674Z,53.49
2022-11-30T04:04:01.274Z,54.92
2022-11-30T04:09:02.999Z,56.08
2022-11-30T04:14:04.638Z,56.52
2022-11-30T04:19:06.299Z,54.97
2022-11-30T04:24:08.411Z,54.02
2022-11-30T04:29:10.117Z,55.70
2022-11-30T04:34:11.707Z,55.34
2022-11-30T04:39:13.382Z,53.96
2022-11-30T04:44:15.016Z,56.10
2022-11-30T04:49:16.717Z,57.29
2022-11-30T04:54:18.389Z,55.81
2022-11-30T04:59:20.117Z,55.74
2022-11-30T05:04:21.729Z,56.68
2022-11-30T05:09:23.422Z,57.00
2022-11-30T05:14:25.111Z,58.80
2022-11-30T05:19:26.727Z,56.34
2022-11-30T05:24:28.450Z,55.83
2022-11-30T05:29:30.088Z,57.08
2022-11-30T05:34:41.194Z,56.15
2022-11-30T05:39:51.118Z,55.70
2022-11-30T05:44:52.696Z,55.00
2022-11-30T05:49:54.276Z,55.42
2022-11-30T05:54:55.924Z,54.92
2022-11-30T05:59:57.515Z,54.50
2022-11-30T06:04:59.092Z,58.53
2022-11-30T06:10:00.803Z,56.64
2022-11-30T06:15:02.498Z,56.97
2022-11-30T06:20:05.967Z,56.29
2022-11-30T06:25:07.597Z,55.64
2022-11-30T06:30:10.563Z,55.89
2022-11-30T06:35:12.149Z,56.50
2022-11-30T06:40:14.138Z,56.37
2022-11-30T06:45:15.810Z,57.67
2022-11-30T06:50:17.514Z,57.01
2022-11-30T06:55:19.090Z,57.05
2022-11-30T07:00:20.863Z,56.75
2022-11-30T07:05:22.460Z,56.21
2022-11-30T07:10:24.070Z,56.00
2022-11-30T07:15:25.683Z,55.56
2022-11-30T07:20:27.274Z,52.60
2022-11-30T07:25:47.580Z,54.06
2022-11-30T07:30:49.183Z,56.22
2022-11-30T07:35:53.334Z,55.41
2022-11-30T07:40:55.087Z,55.95
2022-11-30T07:45:57.089Z,55.10
2022-11-30T07:51:10.316Z,55.64
2022-11-30T07:56:15.539Z,56.20
2022-11-30T08:01:21.564Z,56.45
2022-11-30T08:06:31.018Z,57.26
2022-11-30T08:11:34.922Z,58.55
2022-11-30T08:16:40.191Z,55.01
2022-11-30T08:21:41.832Z,57.18
2022-11-30T08:26:43.441Z,55.56
2022-11-30T08:31:45.954Z,54.61
2022-11-30T08:36:51.742Z,56.27
2022-11-30T08:41:53.852Z,55.87
2022-11-30T08:46:56.261Z,58.26
2022-11-30T08:57:21.215Z,57.39
2022-11-30T09:02:22.829Z,57.14
2022-11-30T09:07:24.447Z,56.84
2022-11-30T09:12:26.022Z,56.65
2022-11-30T09:17:27.566Z,58.12
2022-11-30T09:22:29.280Z,56.77
2022-11-30T09:27:33.856Z,58.59
2022-11-30T09:32:35.480Z,58.69
2022-11-30T09:37:37.106Z,58.18
2022-11-30T09:42:51.984Z,58.16
2022-11-30T09:47:59.544Z,59.46
2022-11-30T09:53:07.364Z,59.37
2022-11-30T09:58:22.975Z,59.21
2022-11-30T10:03:24.737Z,60.52
2022-11-30T10:08:51.246Z,60.91
2022-11-30T10:14:02.891Z,59.03
2022-11-30T10:19:07.427Z,59.28
2022-11-30T10:24:29.765Z,59.07
2022-11-30T10:29:41.704Z,60.03
2022-11-30T10:34:46.157Z,58.53
2022-11-30T10:40:04.911Z,56.99
2022-11-30T10:45:15.230Z,58.84
2022-11-30T10:50:18.099Z,58.71
2022-11-30T10:55:31.857Z,62.19
2022-11-30T11:06:14.559Z,64.19
2022-11-30T11:11:39.206Z,64.94
2022-11-30T11:16:56.258Z,63.33
2022-11-30T11:21:57.954Z,62.74
2022-11-30T11:27:00.004Z,62.20
2022-11-30T11:32:19.435Z,62.72
2022-11-30T11:37:22.828Z,63.18
2022-11-30T11:42:26.354Z,62.61
2022-11-30T11:47:40.674Z,61.34
2022-11-30T11:52:42.335Z,62.78
2022-11-30T11:57:51.967Z,62.31
2022-11-30T12:03:19.451Z,63.61
2022-11-30T12:08:30.762Z,62.21
2022-11-30T12:13:41.044Z,63.28
2022-11-30T12:18:52.200Z,62.10
2022-11-30T12:24:02.876Z,62.00
2022-11-30T12:29:29.920Z,61.98
2022-11-30T12:34:54.778Z,61.86
2022-11-30T12:40:16.942Z,60.50
2022-11-30T12:45:40.290Z,59.63
2022-11-30T12:51:22.823Z,61.12
2022-11-30T12:56:28.036Z,60.43
2022-11-30T13:01:54.040Z,59.92
2022-11-30T13:07:02.992Z,60.06
2022-11-30T13:12:12.974Z,61.61
2022-11-30T13:17:19.165Z,60.21
2022-11-30T13:22:45.759Z,59.40
2022-11-30T13:27:58.210Z,61.29
2022-11-30T13:33:35.351Z,61.05
2022-11-30T13:38:38.275Z,60.02
2022-11-30T13:43:47.788Z,60.11
2022-11-30T13:49:08.911Z,61.72
2022-11-30T13:54:45.158Z,61.77
2022-11-30T13:59:51.642Z,60.73
2022-11-30T14:04:53.310Z,60.80
2022-11-30T14:09:57.262Z,61.52
2022-11-30T14:15:01.200Z,60.83
2022-11-30T14:20:16.874Z,60.66
2022-11-30T14:25:21.158Z,59.00
2022-11-30T14:30:24.185Z,58.75
2022-11-30T14:35:30.278Z,60.69
2022-11-30T14:40:32.872Z,59.74
2022-11-30T14:45:34.782Z,60.77
2022-11-30T14:50:42.222Z,60.23
2022-11-30T14:56:00.155Z,61.28
2022-11-30T15:01:13.930Z,61.47
2022-11-30T15:06:18.456Z,61.93
2022-11-30T15:11:21.758Z,59.84
2022-11-30T19:09:03.045Z,61.30
2022-11-30T19:14:05.727Z,60.74
2022-11-30T19:19:12.575Z,59.46
2022-11-30T19:24:15.992Z,59.50
2022-11-30T19:29:17.696Z,58.78
2022-11-30T19:34:19.286Z,60.32
2022-11-30T19:39:20.862Z,60.07
2022-11-30T19:44:22.446Z,60.78
2022-11-30T19:49:24.220Z,59.62
2022-11-30T19:54:25.982Z,59.30
2022-11-30T19:59:27.568Z,59.59
2022-11-30T20:04:29.124Z,60.55
2022-11-30T20:09:30.780Z,58.71
2022-11-30T20:14:32.559Z,59.04
2022-11-30T20:19:34.542Z,59.87
2022-11-30T20:24:36.602Z,60.73
2022-11-30T20:29:38.240Z,60.31
2022-11-30T20:34:43.758Z,59.60
2022-11-30T20:39:46.451Z,59.78
2022-11-30T20:44:48.389Z,59.49
2022-11-30T20:49:50.482Z,59.22
2022-11-30T20:54:52.158Z,59.87
2022-11-30T20:59:53.863Z,58.99
2022-11-30T21:04:55.499Z,58.48
2022-11-30T21:09:58.575Z,60.83
2022-11-30T21:15:00.174Z,59.46
2022-11-30T21:20:02.161Z,60.04
2022-11-30T21:25:03.883Z,59.14
2022-11-30T21:30:06.457Z,60.90
2022-11-30T21:35:08.719Z,59.77
2022-11-30T21:40:10.963Z,59.07
2022-11-30T21:45:12.558Z,58.38
2022-11-30T21:50:14.145Z,58.38
2022-11-30T21:55:16.075Z,58.31
2022-11-30T22:00:18.183Z,59.01
2022-11-30T22:05:19.774Z,59.86
2022-11-30T22:10:21.451Z,60.69
2022-11-30T22:15:23.042Z,60.54
2022-11-30T22:20:24.654Z,58.55
2022-11-30T22:25:26.198Z,57.62
2022-11-30T22:30:27.853Z,59.62
2022-11-30T22:35:29.458Z,56.85
2022-11-30T22:40:31.029Z,57.71
2022-11-30T22:45:33.292Z,56.47
2022-11-30T22:50:35.422Z,57.65
2022-11-30T22:55:37.043Z,56.72
2022-11-30T23:00:38.660Z,56.17
2022-11-30T23:05:40.567Z,55.77
2022-11-30T23:10:42.248Z,57.53
2022-11-30T23:15:43.950Z,57.36
2022-11-30T23:20:45.640Z,57.00
2022-11-30T23:25:47.599Z,56.02
2022-11-30T23:30:50.243Z,56.91
2022-11-30T23:35:51.808Z,55.24
2022-11-30T23:40:53.394Z,55.75
2022-11-30T23:45:55.114Z,55.93
2022-11-30T23:50:57.061Z,56.00
2022-11-30T23:56:05.655Z,55.72
